Terminal Aerodrome Forecast
Issued by NWS

Home | Current Version | Previous Version | Text Only | Print | Product List | Glossary On
Versions: 1 2 3 4 5 6 7 8 9 10 11 12
228
FTUS45 KRIW 200520
TAFCOD
TAF
KCOD 200520Z 2006/2106 33006KT 6SM FU FEW100 SCT200
     FM201600 02009KT P6SM SCT080 SCT200
      AMD LTD TO CLD VIS AND WIND=

USA.gov is the U.S. government's official web portal to all federal, state and local government web resources and services.